Terminal Aerodrome Forecast
Issued by NWS Milwaukee/Sullivan, WI

Home | Current Version | Previous Version | Text Only | Print | Product List | Glossary On
Versions: 1 2 3 4 5 6 7 8 9 10 11 12 13 14 15 16 17 18 19 20 21 22 23 24 25 26 27 28 29 30 31
000
FTUS43 KMKX 182053 AAB
TAFMKE
TAF AMD
KMKE 182053Z 1821/1924 06009KT P6SM FEW035 SCT250
     FM190900 08007KT P6SM FEW100
     FM191500 12012KT P6SM FEW100=

USA.gov is the U.S. government's official web portal to all federal, state and local government web resources and services.